Time;durP1;ratioP1;P1;durP2;ratioP2;P2;SDS_P1;SDS_P2;PMS_P1;PMS_P2;Temp;Humidity;BMP_temperature;BMP_pressure;BME280_temperature;BME280_humidity;BME280_pressure;Samples;Min_cycle;Max_cycle;Signal;HPM_P1;HPM_P2
2020/12/05 00:01:19;;;;;;;5.53;2.40;;;2.50;99.90;;;1.54;95.49;99105.81;4784130;30;20027;-93
2020/12/05 00:03:59;;;;;;;3.28;2.40;;;1.50;99.90;;;1.45;95.63;99113.13;4785448;30;20035;-92
2020/12/05 00:10:26;;;;;;;4.75;2.53;;;1.50;99.90;;;1.49;96.33;99116.25;4819196;29;20030;-93
2020/12/05 00:12:58;;;;;;;4.75;2.10;;;1.40;99.90;;;1.44;96.22;99124.84;4789964;29;20058;-92
2020/12/05 00:15:24;;;;;;;4.03;2.10;;;1.70;99.90;;;1.39;96.44;99129.09;4790422;29;20035;-92
2020/12/05 00:17:51;;;;;;;4.72;2.38;;;2.10;99.90;;;1.46;96.94;99138.06;4804138;29;20031;-91
2020/12/05 00:20:24;;;;;;;8.63;2.53;;;1.90;99.90;;;1.45;97.06;99147.97;4789065;29;20030;-92
2020/12/05 00:22:55;;;;;;;2.88;2.03;;;2.00;99.90;;;1.44;96.60;99142.78;4795866;29;20035;-90
2020/12/05 00:25:23;;;;;;;3.45;2.35;;;1.40;99.90;;;1.41;96.74;99157.38;4787988;30;20059;-91
2020/12/05 00:28:01;;;;;;;3.50;2.03;;;1.40;99.90;;;1.29;97.41;99148.13;4771223;30;20095;-91
2020/12/05 00:30:33;;;;;;;6.45;2.40;;;1.30;99.90;;;1.31;96.93;99155.97;4736107;30;20210;-92
2020/12/05 00:39:50;;;;;;;2.88;2.28;;;1.30;99.90;;;1.38;96.85;99167.63;4731353;30;20055;-90
2020/12/05 00:42:16;;;;;;;4.97;2.17;;;1.80;99.90;;;1.30;96.79;99170.41;4765533;30;20024;-91
2020/12/05 00:44:42;;;;;;;4.20;2.53;;;1.20;99.90;;;1.22;97.31;99173.16;4765278;30;20090;-93
2020/12/05 00:47:15;;;;;;;5.45;2.95;;;2.10;99.90;;;1.25;97.77;99172.78;4767953;30;20091;-91
2020/12/05 00:49:41;;;;;;;4.90;2.60;;;1.20;99.90;;;1.31;97.42;99182.78;4750543;30;20497;-92
2020/12/05 00:55:55;;;;;;;7.22;2.58;;;1.80;99.90;;;1.19;96.87;99194.94;4776317;30;20051;-92
2020/12/05 00:58:21;;;;;;;2.85;1.88;;;1.70;99.90;;;1.24;96.56;99197.94;4782303;30;20052;-91
2020/12/05 01:00:47;;;;;;;3.25;2.38;;;1.90;99.90;;;1.25;97.36;99205.75;4774315;30;20032;-91
2020/12/05 01:03:16;;;;;;;3.17;2.53;;;1.70;99.90;;;1.15;97.62;99209.72;4762976;30;20032;-91
2020/12/05 01:05:42;;;;;;;4.07;2.22;;;1.80;99.90;;;1.19;97.61;99205.66;4779682;30;20085;-93
2020/12/05 01:08:08;;;;;;;3.05;2.03;;;1.20;99.90;;;1.07;98.64;99214.13;4777464;30;20044;-93
2020/12/05 01:10:38;;;;;;;8.10;2.40;;;1.30;99.90;;;1.16;98.84;99211.38;4777742;30;20294;-92
2020/12/05 01:13:04;;;;;;;6.20;2.35;;;1.20;99.90;;;1.19;98.06;99211.88;4752741;30;20081;-93
2020/12/05 01:15:33;;;;;;;3.83;2.10;;;1.90;99.90;;;1.30;98.14;99224.00;4767350;30;20032;-92
2020/12/05 01:18:04;;;;;;;3.45;2.58;;;1.80;99.90;;;1.23;98.21;99229.25;4774711;30;20035;-91
2020/12/05 01:20:30;;;;;;;7.75;2.63;;;1.20;99.90;;;1.23;98.34;99228.44;4786191;30;20043;-93
2020/12/05 01:22:56;;;;;;;3.38;2.63;;;1.40;99.90;;;1.27;98.67;99224.34;4752067;30;20036;-93
2020/12/05 01:25:22;;;;;;;6.28;2.33;;;1.60;99.90;;;1.28;97.70;99232.22;4796153;30;20051;-91
2020/12/05 01:27:48;;;;;;;4.85;2.22;;;1.80;99.90;;;1.22;97.43;99237.47;4793111;30;20495;-91
2020/12/05 01:30:17;;;;;;;3.95;1.83;;;1.20;99.90;;;1.18;98.06;99236.16;4796247;30;20537;-92
2020/12/05 01:32:50;;;;;;;4.00;2.78;;;1.20;99.90;;;1.14;97.74;99240.19;4799205;29;20039;-93
2020/12/05 01:35:16;;;;;;;8.55;2.90;;;1.10;99.90;;;1.16;98.22;99243.53;4764573;30;20061;-90
2020/12/05 01:37:41;;;;;;;5.97;2.40;;;1.10;99.90;;;1.16;98.68;99249.72;4779696;30;20104;-93
2020/12/05 01:40:07;;;;;;;4.57;2.97;;;2.20;99.90;;;1.14;99.03;99250.91;4794770;30;20031;-91
2020/12/05 01:42:33;;;;;;;7.88;2.85;;;1.70;99.90;;;1.08;98.69;99258.66;4793536;30;20031;-91
2020/12/05 01:45:06;;;;;;;4.72;2.53;;;0.00;99.90;;;1.13;99.28;99263.47;4781207;30;20039;-91
2020/12/05 01:47:47;;;;;;;4.30;2.60;;;1.10;99.90;;;1.12;98.98;99271.72;4785938;30;20474;-92
2020/12/05 01:50:17;;;;;;;4.22;2.92;;;1.10;99.90;;;1.04;98.43;99273.44;4784217;29;20027;-92
2020/12/05 01:52:49;;;;;;;5.68;2.38;;;1.60;99.90;;;1.00;99.37;99268.63;4798652;29;20047;-91
2020/12/05 01:55:21;;;;;;;4.63;2.70;;;1.10;99.90;;;1.06;97.88;99271.41;4776440;30;20050;-92
2020/12/05 01:57:59;;;;;;;4.32;2.67;;;1.30;99.90;;;1.15;97.04;99279.38;4795153;30;20027;-91
2020/12/05 02:00:36;;;;;;;4.40;2.50;;;1.20;99.90;;;1.11;97.36;99278.91;4792164;30;20040;-92
2020/12/05 02:03:06;;;;;;;5.05;2.50;;;1.60;99.90;;;1.09;97.11;99281.78;4810853;29;20080;-91
2020/12/05 02:05:51;;;;;;;4.07;2.55;;;1.20;99.90;;;1.01;98.11;99276.47;4797140;30;20035;-90
2020/12/05 02:08:51;;;;;;;2.90;2.25;;;1.10;99.90;;;0.99;97.35;99286.53;4782291;30;20111;-92
2020/12/05 02:11:21;;;;;;;8.13;2.15;;;1.00;99.90;;;0.94;99.04;99278.19;4781295;30;20065;-91
2020/12/05 02:14:01;;;;;;;5.50;3.17;;;1.00;99.90;;;1.04;98.64;99273.44;4808664;29;20034;-91
2020/12/05 02:16:28;;;;;;;4.88;2.80;;;1.80;99.90;;;0.99;98.25;99267.78;4808904;29;20508;-92
2020/12/05 02:19:02;;;;;;;4.93;2.67;;;1.80;99.90;;;0.97;99.20;99275.16;4755916;30;20039;-91
2020/12/05 02:21:29;;;;;;;5.72;2.63;;;0.90;99.90;;;0.99;99.12;99270.47;4794740;29;20040;-91
2020/12/05 02:24:05;;;;;;;2.95;2.30;;;2.00;99.90;;;1.03;99.20;99279.78;4774899;29;20440;-91
2020/12/05 02:26:31;;;;;;;6.55;3.20;;;0.90;99.90;;;0.97;99.34;99277.00;4802681;29;20047;-90
2020/12/05 02:28:57;;;;;;;6.35;3.88;;;1.00;99.90;;;1.01;98.98;99273.81;4791660;30;20039;-91
2020/12/05 02:31:25;;;;;;;4.32;2.65;;;2.00;99.90;;;0.98;98.09;99274.16;4782762;30;20093;-89
2020/12/05 02:33:52;;;;;;;5.95;2.75;;;1.80;99.90;;;0.96;98.50;99270.81;4777660;30;20089;-92
2020/12/05 02:36:18;;;;;;;4.10;2.20;;;1.00;99.90;;;0.96;98.35;99281.53;4794295;29;20062;-92
2020/12/05 02:39:10;;;;;;;5.13;2.90;;;1.50;99.90;;;0.92;98.18;99280.19;4767646;30;20364;-93
2020/12/05 02:41:40;;;;;;;4.60;2.88;;;1.00;99.90;;;0.96;98.50;99278.00;4795897;30;20039;-91
2020/12/05 02:44:07;;;;;;;10.25;2.92;;;1.00;99.90;;;1.03;97.55;99282.47;4797548;30;20024;-92
2020/12/05 02:46:34;;;;;;;4.68;2.97;;;1.50;99.90;;;1.06;98.00;99278.63;4795382;30;20023;-91
2020/12/05 02:49:01;;;;;;;4.97;3.03;;;0.70;99.90;;;1.03;98.39;99282.47;4795711;30;20032;-91
2020/12/05 02:51:26;;;;;;;4.65;2.72;;;1.10;99.90;;;0.95;99.11;99279.84;4794667;29;20031;-91
2020/12/05 02:53:56;;;;;;;5.22;3.17;;;1.00;99.90;;;0.96;98.24;99278.84;4765670;30;20090;-91
2020/12/05 02:56:26;;;;;;;5.05;2.60;;;1.90;99.90;;;0.98;98.00;99282.19;4780340;30;20043;-92
2020/12/05 02:58:53;;;;;;;5.63;2.67;;;0.90;99.90;;;0.93;98.30;99276.50;4763224;30;20448;-91
2020/12/05 03:01:19;;;;;;;3.60;2.70;;;1.20;99.90;;;0.98;98.18;99279.50;4794352;30;20028;-91
2020/12/05 03:03:45;;;;;;;3.15;2.33;;;0.90;99.90;;;0.95;98.65;99274.50;4806695;29;20088;-91
2020/12/05 03:06:10;;;;;;;3.13;2.65;;;1.00;99.90;;;0.84;99.29;99269.53;4764652;30;20046;-92
2020/12/05 03:08:36;;;;;;;4.38;2.38;;;0.70;99.90;;;0.92;99.01;99263.28;4764822;30;20042;-91
2020/12/05 03:11:02;;;;;;;4.80;2.13;;;1.30;99.90;;;1.00;99.25;99266.78;4793914;30;20039;-91
2020/12/05 03:13:28;;;;;;;4.70;4.13;;;1.50;99.90;;;0.98;98.97;99278.69;4764991;30;20043;-90
2020/12/05 03:15:54;;;;;;;4.97;3.92;;;1.40;99.90;;;0.95;99.74;99271.81;4764670;30;20532;-90
2020/12/05 03:18:20;;;;;;;3.67;2.97;;;0.80;99.90;;;0.92;100.00;99269.50;4781484;30;20032;-91
2020/12/05 03:20:46;;;;;;;4.60;3.45;;;0.90;99.90;;;1.01;99.09;99268.44;4795592;30;20092;-91
2020/12/05 03:23:12;;;;;;;4.20;2.83;;;1.10;99.90;;;1.05;99.48;99269.75;4750836;30;20031;-90
2020/12/05 03:25:39;;;;;;;4.85;2.85;;;1.50;99.90;;;1.03;99.01;99269.06;4764411;30;20055;-91
2020/12/05 03:28:05;;;;;;;5.15;3.00;;;0.80;99.90;;;0.95;98.74;99269.13;4768482;30;20114;-89
2020/12/05 03:30:31;;;;;;;4.10;2.30;;;1.10;99.90;;;0.98;99.09;99278.69;4780843;30;20043;-93
2020/12/05 03:32:57;;;;;;;4.97;2.97;;;0.80;99.90;;;0.99;99.38;99277.66;4762811;30;20082;-91
2020/12/05 03:35:25;;;;;;;4.18;2.97;;;1.60;99.90;;;0.89;99.88;99277.91;4791286;30;20036;-92
2020/12/05 03:37:55;;;;;;;4.63;3.83;;;1.40;99.90;;;0.96;99.59;99281.53;4766946;30;20032;-93
2020/12/05 03:40:21;;;;;;;6.53;2.70;;;0.80;99.90;;;0.97;99.24;99288.56;4797154;30;20074;-92
2020/12/05 03:42:46;;;;;;;4.45;2.67;;;1.60;99.90;;;0.86;100.00;99285.44;4778661;29;20041;-92
2020/12/05 03:45:13;;;;;;;4.07;2.13;;;0.80;99.90;;;0.99;99.92;99296.41;4773442;30;20118;-92
2020/12/05 03:47:38;;;;;;;4.47;2.95;;;1.10;99.90;;;0.86;99.75;99286.28;4796556;30;20039;-91
2020/12/05 03:50:06;;;;;;;4.03;2.13;;;1.50;99.90;;;0.93;99.03;99286.41;4781120;30;20380;-91
2020/12/05 03:52:33;;;;;;;2.85;2.45;;;0.90;99.90;;;0.96;98.93;99292.25;4762232;29;20065;-92
2020/12/05 03:54:59;;;;;;;3.17;2.65;;;0.90;99.90;;;0.97;98.72;99288.56;4751899;29;20034;-91
2020/12/05 03:57:25;;;;;;;5.38;2.67;;;1.70;99.90;;;1.04;98.42;99286.81;4769853;30;20051;-90
2020/12/05 03:59:51;;;;;;;6.70;2.33;;;0.80;99.90;;;0.92;98.73;99284.72;4782892;30;20065;-92
2020/12/05 04:02:17;;;;;;;4.93;2.47;;;1.00;99.90;;;0.92;98.77;99282.88;4798789;30;20026;-91
2020/12/05 04:04:43;;;;;;;5.57;2.50;;;0.80;99.90;;;0.98;99.61;99282.19;4792475;30;20031;-92
2020/12/05 04:07:09;;;;;;;7.18;3.00;;;0.80;99.90;;;0.98;99.37;99284.88;4794876;30;20061;-91
2020/12/05 04:09:35;;;;;;;4.93;3.05;;;0.90;99.90;;;0.96;98.99;99286.06;4772596;29;20047;-93
2020/12/05 04:12:01;;;;;;;5.03;2.80;;;1.00;99.90;;;0.96;100.00;99291.41;4770498;29;20039;-92
2020/12/05 04:14:26;;;;;;;5.03;3.20;;;0.90;99.90;;;0.97;100.00;99282.34;4755502;30;20048;-92
2020/12/05 04:16:52;;;;;;;3.72;2.63;;;1.00;99.90;;;0.99;99.55;99286.53;4770125;30;20031;-93
2020/12/05 04:19:18;;;;;;;3.30;2.83;;;1.00;99.90;;;0.95;99.51;99285.22;4759055;30;20130;-92
2020/12/05 04:21:44;;;;;;;6.88;2.80;;;1.70;99.90;;;1.02;99.00;99294.19;4795604;30;20027;-92
2020/12/05 04:24:10;;;;;;;3.42;2.85;;;1.40;99.90;;;1.06;98.86;99292.84;4795345;30;20113;-92
2020/12/05 04:26:36;;;;;;;7.80;2.88;;;0.80;99.90;;;0.92;98.80;99287.41;4763803;30;20108;-92
2020/12/05 04:29:03;;;;;;;5.97;2.80;;;1.70;99.90;;;0.96;99.10;99292.25;4765829;30;20035;-91
2020/12/05 04:31:31;;;;;;;6.95;2.65;;;0.90;99.90;;;0.91;99.09;99294.59;4789462;30;20046;-90
2020/12/05 04:33:57;;;;;;;3.97;2.83;;;1.50;99.90;;;0.77;99.59;99298.06;4778425;30;20082;-90
2020/12/05 04:36:23;;;;;;;6.78;2.88;;;2.00;99.90;;;0.78;99.68;99302.41;4787051;30;20171;-90
2020/12/05 04:38:49;;;;;;;7.53;3.00;;;1.70;99.90;;;0.89;99.28;99301.16;4781026;30;20035;-90
2020/12/05 04:41:15;;;;;;;5.55;3.28;;;0.90;99.90;;;0.70;99.25;99302.44;4795616;30;20054;-90
2020/12/05 04:43:41;;;;;;;6.45;3.40;;;1.60;99.90;;;0.69;100.00;99298.06;4780702;30;20118;-89
2020/12/05 04:46:07;;;;;;;4.05;2.80;;;1.40;99.90;;;0.58;100.00;99293.13;4788974;30;20040;-90
2020/12/05 04:48:33;;;;;;;8.27;2.63;;;0.80;99.90;;;0.66;99.68;99298.44;4803212;29;20035;-90
2020/12/05 04:51:03;;;;;;;5.32;2.88;;;1.30;99.90;;;0.83;99.47;99309.88;4782235;30;20046;-91
2020/12/05 04:53:31;;;;;;;5.78;3.13;;;0.80;99.90;;;0.84;98.83;99315.06;4793375;29;20047;-91
2020/12/05 04:55:59;;;;;;;8.15;3.10;;;0.80;99.90;;;0.75;99.48;99309.94;4796325;30;20038;-91
2020/12/05 04:58:26;;;;;;;5.22;2.63;;;0.80;99.90;;;0.72;99.99;99316.47;4796002;30;20046;-91
2020/12/05 05:00:57;;;;;;;4.15;3.33;;;0.90;99.90;;;0.81;99.31;99315.41;4765812;30;20039;-91
2020/12/05 05:03:27;;;;;;;6.65;3.30;;;1.70;99.90;;;0.76;99.60;99316.97;4795987;30;20027;-91
2020/12/05 05:06:00;;;;;;;5.43;3.38;;;0.80;99.90;;;0.83;99.17;99312.56;4794827;29;20066;-91
2020/12/05 05:08:27;;;;;;;7.07;3.65;;;0.80;99.90;;;0.68;99.16;99320.50;4795348;30;20039;-92
2020/12/05 05:11:12;;;;;;;3.22;2.72;;;1.70;99.90;;;0.55;99.30;99309.56;4766174;30;20035;-90
2020/12/05 05:14:13;;;;;;;5.75;2.90;;;1.10;99.90;;;0.59;99.97;99318.88;4794836;30;20035;-91
2020/12/05 05:16:41;;;;;;;6.68;3.15;;;0.80;99.90;;;0.54;99.37;99321.25;4795275;29;20040;-91
2020/12/05 05:19:22;;;;;;;4.63;2.42;;;1.70;99.90;;;0.60;99.49;99331.25;4775971;30;20035;-91
2020/12/05 05:21:50;;;;;;;7.10;3.05;;;1.80;99.90;;;0.56;99.53;99332.63;4765779;30;20058;-91
2020/12/05 05:24:18;;;;;;;10.27;3.30;;;1.50;99.90;;;0.51;99.80;99338.50;4767008;30;20087;-92
2020/12/05 05:27:09;;;;;;;5.47;2.95;;;0.90;99.90;;;0.52;100.00;99353.56;4765427;30;20035;-93
2020/12/05 05:29:39;;;;;;;4.85;3.63;;;0.80;99.90;;;0.51;100.00;99356.41;4765426;30;20039;-92
2020/12/05 05:34:36;;;;;;;4.75;3.08;;;0.70;99.90;;;0.58;100.00;99368.06;4781012;30;20055;-91
2020/12/05 05:37:14;;;;;;;3.60;2.95;;;0.90;99.90;;;0.75;100.00;99369.69;4765258;30;20039;-90
2020/12/05 05:39:55;;;;;;;6.75;3.42;;;1.20;99.90;;;0.86;100.00;99374.66;4781497;30;20038;-91
2020/12/05 05:42:34;;;;;;;7.70;3.65;;;0.80;99.90;;;0.88;100.00;99375.31;4781932;30;20028;-91
2020/12/05 05:45:27;;;;;;;6.03;3.05;;;0.80;99.90;;;0.94;99.88;99371.94;4767229;30;20039;-91
2020/12/05 05:48:02;;;;;;;3.90;2.88;;;1.00;99.90;;;0.88;100.00;99377.16;4782526;30;20058;-91
2020/12/05 05:50:35;;;;;;;4.78;3.55;;;0.90;99.90;;;0.98;100.00;99386.66;4785910;30;20185;-92
2020/12/05 05:53:10;;;;;;;4.53;2.95;;;1.00;99.90;;;0.98;100.00;99386.66;4780635;30;20039;-91
2020/12/05 05:55:51;;;;;;;5.25;3.15;;;1.40;99.90;;;0.87;100.00;99400.44;4782754;30;20492;-91
2020/12/05 05:58:20;;;;;;;4.65;4.18;;;1.00;99.90;;;0.85;100.00;99396.25;4769579;30;20390;-91
2020/12/05 06:00:49;;;;;;;4.68;3.13;;;1.00;99.90;;;1.00;100.00;99395.38;4781087;29;20035;-90
2020/12/05 06:03:26;;;;;;;5.60;3.35;;;1.70;99.90;;;0.99;100.00;99393.69;4781220;30;20039;-91
2020/12/05 06:05:59;;;;;;;10.35;3.40;;;0.90;99.90;;;1.00;100.00;99395.38;4771276;29;20031;-90
2020/12/05 06:08:30;;;;;;;10.18;3.30;;;1.80;99.90;;;1.04;100.00;99390.47;4774725;30;20043;-92
2020/12/05 06:11:11;;;;;;;5.30;3.65;;;1.20;99.90;;;1.06;100.00;99394.66;4775611;29;20024;-92
2020/12/05 06:13:39;;;;;;;3.75;3.15;;;1.80;99.90;;;1.13;100.00;99391.28;4775075;30;20045;-90
2020/12/05 06:16:05;;;;;;;3.60;2.88;;;1.80;99.90;;;1.01;100.00;99391.69;4769281;29;20041;-90
2020/12/05 06:18:32;;;;;;;5.93;3.28;;;1.80;99.90;;;1.09;100.00;99388.94;4771051;29;20035;-90
2020/12/05 06:20:58;;;;;;;8.95;3.78;;;1.80;99.90;;;1.20;100.00;99394.91;4772197;29;20027;-90
2020/12/05 06:23:35;;;;;;;3.60;3.00;;;1.70;99.90;;;1.23;100.00;99394.56;4755369;29;20520;-91
2020/12/05 06:29:48;;;;;;;9.20;2.65;;;1.20;99.90;;;1.30;98.78;99395.53;4802086;30;20096;-92
2020/12/05 06:32:38;;;;;;;5.70;3.00;;;1.70;99.90;;;1.30;100.00;99398.19;4806430;29;20065;-92
2020/12/05 06:35:25;;;;;;;6.93;3.38;;;1.30;99.90;;;1.19;99.44;99390.56;4772795;30;20028;-91
2020/12/05 06:37:53;;;;;;;7.28;3.40;;;2.00;99.90;;;1.34;100.00;99388.81;4804043;29;20041;-91
2020/12/05 06:40:21;;;;;;;6.20;3.13;;;1.30;99.90;;;1.39;100.00;99389.09;4777201;30;20059;-91
2020/12/05 06:42:56;;;;;;;8.00;3.47;;;1.40;99.90;;;1.46;99.49;99400.78;4773617;30;20027;-91
2020/12/05 06:45:28;;;;;;;6.50;2.42;;;1.40;99.90;;;1.57;99.55;99408.44;4801262;29;20039;-90
2020/12/05 06:48:11;;;;;;;5.68;3.13;;;2.20;99.90;;;1.59;99.24;99401.00;4785754;30;20371;-88
2020/12/05 06:50:39;;;;;;;4.57;3.20;;;1.50;99.90;;;1.59;97.98;99398.34;4782399;30;20032;-91
2020/12/05 06:53:20;;;;;;;6.50;2.65;;;2.30;99.90;;;1.57;99.13;99396.88;4776977;30;20044;-91
2020/12/05 06:55:53;;;;;;;8.20;2.88;;;1.50;99.90;;;1.65;98.97;99407.53;4782299;30;20039;-90
2020/12/05 06:58:31;;;;;;;3.28;2.55;;;1.60;99.90;;;1.68;98.62;99416.06;4787994;30;20092;-89
2020/12/05 07:01:00;;;;;;;3.67;2.58;;;1.60;99.90;;;1.70;98.61;99413.16;4827650;24;20066;-89
2020/12/05 07:03:32;;;;;;;4.07;2.72;;;1.60;99.90;;;1.75;97.90;99426.91;4795782;29;20455;-87
2020/12/05 07:06:02;;;;;;;7.28;4.03;;;1.50;99.90;;;1.67;98.44;99432.31;4795417;29;20035;-91
2020/12/05 07:08:33;;;;;;;5.57;2.58;;;1.60;99.90;;;1.60;99.00;99440.22;4796884;29;20030;-90
2020/12/05 07:11:03;;;;;;;4.35;2.70;;;2.00;99.90;;;1.65;99.02;99443.22;4782649;30;20051;-90
2020/12/05 07:13:50;;;;;;;8.88;3.03;;;1.70;99.90;;;1.77;98.53;99446.34;4789327;29;20085;-88
2020/12/05 07:16:30;;;;;;;4.20;3.22;;;1.60;99.90;;;1.75;98.53;99453.72;4786044;29;20069;-91
2020/12/05 07:19:33;;;;;;;4.75;3.00;;;1.60;99.90;;;1.36;100.00;99454.59;4794450;29;20030;-93
2020/12/05 07:22:07;;;;;;;3.55;2.78;;;1.60;99.90;;;1.74;99.93;99452.88;4741852;30;20056;-93
2020/12/05 07:24:33;;;;;;;5.47;3.00;;;1.60;99.90;;;1.82;99.54;99460.03;4752931;30;20100;-92
2020/12/05 07:27:00;;;;;;;6.55;3.22;;;1.60;99.90;;;1.85;99.32;99458.84;4737324;30;20286;-93
2020/12/05 07:33:09;;;;;;;7.18;3.72;;;1.50;99.90;;;1.87;98.42;99462.19;4767277;30;20035;-93
2020/12/05 07:39:21;;;;;;;5.57;3.22;;;1.50;99.90;;;1.97;98.36;99484.25;4774577;30;20055;-92
2020/12/05 07:41:57;;;;;;;8.15;3.65;;;2.40;99.90;;;1.91;98.62;99479.59;4743281;30;20036;-94
2020/12/05 07:44:24;;;;;;;4.28;3.50;;;1.70;99.90;;;1.91;99.02;99479.59;4723168;30;20048;-94
2020/12/05 07:46:50;;;;;;;5.18;3.58;;;1.40;99.90;;;1.96;99.34;99496.00;4736630;30;20037;-93
2020/12/05 07:52:57;;;;;;;5.20;4.03;;;1.90;99.90;;;2.11;97.94;99486.16;4768452;30;20050;-92
2020/12/05 07:55:29;;;;;;;7.53;3.83;;;1.40;99.90;;;2.12;98.20;99487.81;4736616;30;20081;-92
2020/12/05 07:58:02;;;;;;;10.27;3.25;;;2.00;99.90;;;2.12;98.17;99498.56;4739856;30;20540;-94
2020/12/05 08:00:30;;;;;;;9.35;3.90;;;2.10;99.90;;;2.21;97.83;99512.75;4724610;30;20266;-94
2020/12/05 08:03:47;;;;;;;11.75;6.32;;;2.00;99.90;;;2.16;97.73;99515.97;4737224;30;20048;-93
2020/12/05 08:06:52;;;;;;;7.40;3.70;;;1.90;99.90;;;2.12;97.89;99541.50;4778430;29;20042;-93
2020/12/05 08:09:54;;;;;;;6.00;3.50;;;2.20;99.90;;;2.06;97.96;99537.66;4811108;29;20061;-92
2020/12/05 08:12:48;;;;;;;5.85;3.65;;;2.50;99.90;;;2.11;97.88;99539.84;4805696;29;20039;-94
2020/12/05 08:15:20;;;;;;;5.97;3.80;;;1.40;99.90;;;2.18;98.56;99552.34;4807124;29;20043;-92
2020/12/05 08:17:49;;;;;;;7.03;3.55;;;2.30;99.90;;;2.31;98.68;99559.81;4854777;24;20093;-93
2020/12/05 08:20:17;;;;;;;6.00;4.63;;;2.20;99.90;;;2.59;100.00;99559.28;4782213;30;20044;-92
2020/12/05 08:22:46;;;;;;;4.32;3.78;;;2.90;99.90;;;3.38;98.66;99565.88;4737389;30;20048;-91
2020/12/05 08:25:13;;;;;;;6.88;4.15;;;2.70;99.90;;;4.32;95.39;99557.69;4764876;30;20109;-91
2020/12/05 08:27:41;;;;;;;5.90;4.55;;;3.70;99.90;;;4.91;90.60;99570.03;4755734;30;20139;-90
2020/12/05 08:30:09;;;;;;;8.18;3.95;;;3.90;99.90;;;5.40;88.21;99573.50;4784886;30;20043;-93
2020/12/05 08:32:36;;;;;;;6.40;3.40;;;4.60;99.90;;;5.95;86.12;99566.31;4801972;29;20071;-91
2020/12/05 08:35:09;;;;;;;6.32;3.20;;;5.40;99.90;;;7.01;82.22;99574.59;4787836;30;20040;-90
2020/12/05 08:37:41;;;;;;;4.32;3.10;;;5.50;99.90;;;7.45;80.30;99572.06;4772133;30;20077;-91
2020/12/05 08:40:07;;;;;;;4.30;3.20;;;6.50;99.90;;;8.06;75.61;99578.94;4789819;30;20051;-91
2020/12/05 08:42:34;;;;;;;6.07;3.13;;;6.70;99.90;;;8.51;73.48;99582.50;4805254;30;20028;-93
2020/12/05 08:45:00;;;;;;;7.95;3.35;;;7.00;99.90;;;9.12;70.56;99587.28;4785194;30;20042;-91
2020/12/05 08:47:43;;;;;;;6.05;3.00;;;7.60;99.90;;;9.65;70.34;99585.72;4774623;30;20036;-90
2020/12/05 08:50:33;;;;;;;5.13;2.92;;;8.10;99.90;;;10.37;66.92;99584.03;4773968;30;20078;-92
2020/12/05 08:53:03;;;;;;;3.42;2.40;;;8.70;99.90;;;10.64;62.22;99589.09;4789416;30;20093;-92
2020/12/05 08:59:12;;;;;;;4.22;3.08;;;9.20;98.90;;;10.71;60.11;99584.41;4791789;30;20431;-91
2020/12/05 09:01:45;;;;;;;4.28;2.75;;;9.50;97.80;;;11.30;57.87;99588.84;4802127;30;20044;-91
2020/12/05 09:08:00;;;;;;;5.40;3.72;;;10.20;96.10;;;11.98;55.16;99589.06;4792060;30;20092;-91
2020/12/05 09:10:38;;;;;;;6.88;2.70;;;10.60;95.70;;;12.17;53.70;99602.56;4761512;30;20056;-93
2020/12/05 09:13:06;;;;;;;6.40;3.20;;;11.20;94.90;;;11.91;53.95;99591.13;4769406;30;20044;-91
2020/12/05 09:15:35;;;;;;;2.97;2.60;;;11.00;94.10;;;11.70;54.31;99594.44;4739316;30;20111;-91
2020/12/05 09:18:01;;;;;;;4.93;3.60;;;10.80;94.10;;;11.90;55.51;99600.38;4752263;30;20053;-90
2020/12/05 09:20:49;;;;;;;4.25;2.83;;;10.90;94.80;;;12.23;53.00;99594.25;4753214;30;20067;-92
2020/12/05 09:23:45;;;;;;;3.65;2.30;;;11.10;94.00;;;12.80;51.60;99605.16;4781706;30;20049;-90
2020/12/05 09:26:12;;;;;;;6.80;2.65;;;11.30;93.70;;;12.98;50.05;99612.34;4768163;30;20182;-91
2020/12/05 09:32:46;;;;;;;3.95;2.65;;;11.70;92.20;;;12.73;50.01;99621.72;4782117;30;20062;-89
2020/12/05 09:35:19;;;;;;;3.53;2.70;;;11.30;92.70;;;12.91;48.83;99617.09;4766691;30;20043;-91
2020/12/05 09:38:10;;;;;;;3.85;2.50;;;11.70;92.70;;;13.52;47.34;99629.09;4758824;30;20048;-92
2020/12/05 09:41:00;;;;;;;6.32;2.33;;;11.90;92.20;;;13.30;46.92;99621.66;4750366;30;20047;-90
2020/12/05 09:43:26;;;;;;;5.00;2.78;;;12.00;91.90;;;13.34;47.29;99627.44;4756681;30;20063;-91
2020/12/05 09:45:52;;;;;;;3.88;3.00;;;12.30;92.20;;;13.52;47.23;99634.56;4768747;30;20129;-91
2020/12/05 09:48:21;;;;;;;5.03;2.72;;;12.20;91.90;;;13.38;46.46;99623.13;4755980;30;20032;-91
2020/12/05 09:50:52;;;;;;;5.45;2.92;;;12.30;91.50;;;13.14;46.57;99616.13;4772928;30;20034;-91
2020/12/05 09:53:19;;;;;;;5.45;3.03;;;12.10;91.10;;;11.84;51.08;99623.16;4753408;30;20044;-90
2020/12/05 09:55:45;;;;;;;3.65;3.33;;;11.70;91.80;;;10.40;54.66;99621.63;4769469;30;20043;-90
2020/12/05 09:58:11;;;;;;;4.93;3.33;;;11.00;92.30;;;9.36;58.60;99621.75;4789012;30;20039;-91
2020/12/05 10:00:56;;;;;;;5.35;3.05;;;10.10;93.80;;;8.22;63.69;99625.38;4801994;30;20039;-92
2020/12/05 10:03:23;;;;;;;4.20;2.88;;;9.00;95.70;;;7.67;66.48;99628.69;4715966;30;20052;-89
2020/12/05 10:05:51;;;;;;;3.80;2.92;;;8.30;97.40;;;6.93;70.59;99638.69;4712990;30;20057;-90
2020/12/05 10:08:17;;;;;;;4.43;2.97;;;7.70;98.90;;;6.43;74.50;99639.25;4691330;30;20076;-91
2020/12/05 10:10:43;;;;;;;7.53;4.25;;;7.30;99.90;;;6.24;74.68;99637.28;4716914;30;20076;-90
2020/12/05 10:13:09;;;;;;;6.85;3.80;;;6.70;99.90;;;5.97;77.30;99648.00;4717545;30;20053;-92
2020/12/05 10:15:35;;;;;;;5.30;3.58;;;6.40;99.90;;;5.65;78.64;99643.19;4714584;30;20038;-91
2020/12/05 10:18:01;;;;;;;4.68;3.25;;;6.00;99.90;;;5.32;80.69;99649.19;4712373;30;20107;-91
2020/12/05 10:20:33;;;;;;;5.75;3.35;;;5.80;99.90;;;5.37;80.92;99652.16;4725146;30;20049;-91
2020/12/05 10:23:00;;;;;;;7.18;3.53;;;5.70;99.90;;;5.10;82.50;99644.84;4731516;30;20076;-90
2020/12/05 10:25:26;;;;;;;3.85;3.38;;;5.40;99.90;;;5.07;83.47;99645.28;4735051;30;20029;-91
2020/12/05 10:27:52;;;;;;;9.65;4.10;;;5.30;99.90;;;4.90;85.00;99644.69;4721578;30;20084;-90
2020/12/05 10:30:18;;;;;;;5.90;3.83;;;5.20;99.90;;;4.85;85.92;99646.31;4728811;30;20037;-90
2020/12/05 10:32:45;;;;;;;4.97;3.67;;;5.20;99.90;;;4.91;85.69;99650.91;4752008;30;20083;-91
2020/12/05 10:35:12;;;;;;;5.97;4.28;;;5.00;99.90;;;4.83;86.06;99648.38;4789117;30;20100;-90
2020/12/05 10:42:26;;;;;;;4.28;3.28;;;5.00;99.90;;;4.63;87.93;99643.59;4792853;30;20045;-90
2020/12/05 10:45:00;;;;;;;5.88;2.90;;;4.90;99.90;;;4.77;87.95;99643.72;4740593;30;20036;-90
2020/12/05 10:47:32;;;;;;;4.35;3.42;;;4.90;99.90;;;4.62;88.12;99647.34;4753528;30;20035;-89
2020/12/05 10:50:02;;;;;;;9.95;3.80;;;4.80;99.90;;;4.80;87.31;99646.03;4777871;30;20063;-90
2020/12/05 10:56:19;;;;;;;5.60;3.33;;;4.90;99.90;;;4.89;87.17;99644.88;4792092;30;20070;-91
2020/12/05 10:58:54;;;;;;;5.40;3.60;;;5.00;99.90;;;4.82;87.83;99646.69;4758926;30;20032;-92
2020/12/05 11:04:20;;;;;;;3.42;2.97;;;5.00;99.90;;;4.73;88.25;99654.91;4834810;24;20067;-92
2020/12/05 11:06:49;;;;;;;6.22;3.17;;;4.90;99.90;;;4.87;87.71;99650.47;4746121;30;20062;-94
2020/12/05 12:14:50;;;;;;;3.17;2.88;;;6.30;99.90;;;6.16;81.56;99717.47;4808783;30;20056;-89
2020/12/05 12:17:16;;;;;;;7.18;3.35;;;6.30;99.90;;;6.33;81.32;99722.53;4796100;29;20053;-91
2020/12/05 12:19:43;;;;;;;3.65;3.17;;;6.20;99.90;;;6.17;81.28;99724.56;4812380;29;20049;-91
2020/12/05 12:22:09;;;;;;;4.78;3.58;;;6.20;99.90;;;6.42;81.05;99727.59;4777653;29;20038;-89
2020/12/05 12:24:37;;;;;;;5.55;3.97;;;6.20;99.90;;;6.56;81.00;99732.00;4808688;29;20034;-90
2020/12/05 12:27:08;;;;;;;6.60;4.05;;;6.30;99.90;;;6.42;81.53;99733.00;4789709;30;20058;-91
2020/12/05 12:29:40;;;;;;;7.63;3.55;;;6.30;99.90;;;6.59;81.14;99728.06;4776877;30;20132;-92
2020/12/05 12:32:06;;;;;;;6.00;4.07;;;6.40;99.90;;;6.67;81.39;99730.59;4792335;30;20054;-93
2020/12/05 12:37:07;;;;;;;6.82;3.28;;;6.50;99.90;;;6.90;79.89;99725.66;4826985;24;20070;-93
2020/12/05 12:39:33;;;;;;;6.18;3.40;;;7.30;99.90;;;7.10;79.69;99722.19;4796483;29;20057;-92
2020/12/05 12:42:17;;;;;;;8.07;4.03;;;6.80;99.90;;;6.91;79.81;99719.22;4795479;29;20114;-92
2020/12/05 12:44:45;;;;;;;6.32;3.40;;;6.90;99.90;;;7.24;79.29;99719.28;4810105;29;20065;-93
2020/12/05 12:47:59;;;;;;;6.38;3.30;;;7.00;99.90;;;7.29;78.27;99718.66;4812050;29;20035;-92
2020/12/05 12:50:06;;;;;;;5.32;2.88;;;7.20;99.90;;;6.98;80.11;99715.72;4807452;29;20027;-93